Strona główna
METAR-TAF:

METAR-TAF

Lotnisko :

Port lotniczy Gibraltar

Gibraltar, Gibraltar

Szerokość geograficzna: 36-09N, Długość geograficzna: 005-21W, wysokość: 5 m

Aktualna obserwacja pogody

Raport powstał 39 minut temu, godzina 17:50 UTC
Wiatr 18 kt od wschód
Temperatura 22°C
Wilgotność 69%
Ciśnienie 1018 hPa
Widzialność 10 km lub więcej

METAR: LXGB 191750Z AUTO 10018KT 9999 // NCD 22/16 Q1018

czas: 20:29 (18:29 UTC)

Prognoza

Raport powstał 4 godziny i 39 minut temu, godzina 13:50 UTC
Prognoza ważna od 19 godzina 15 UTC do 19 godzina 22 UTC
Wiatr 14 kt od wschód
Widzialność 10 km lub więcej
Mało chmury na wysokości 1200 ft
Przejściowo
od 19 godzina 15 UTC do 19 godzina 22 UTC
Wiatr 16 kt od wschód w porywach dochodzący do 26 kt

TAF: LXGB 191350Z 1915/1922 09014KT 9999 FEW012 TEMPO 1915/1922 10016G26KT

Obserwacja i prognoza pogody dla ponad 4000 lotnisk (raport METAR i TAF).

Dostępne stacje oznaczono żółtymi i czerwonymi punktami na mapie.

Najedź kursorem aby zobaczyć nazwę stacji.

Kliknij aby zobaczyć obserwacje i prognozy pogody.

Aby zmienić mapę: kliknij na zielony przycisk z czarnym krzyżykiem, aby powiększyć; na zielony przycisk z myślnikiem, aby pomniejszyć; na zielone strzałki, aby przejść do map sąsiednich.


METAR-TAF: